sensor_id;sensor_type;location;lat;lon;timestamp;P1;durP1;ratioP1;P2;durP2;ratioP2
54235;SDS011;40151;43.606;1.472;2023-07-24T00:02:08;12.30;;;5.65;;
54235;SDS011;40151;43.606;1.472;2023-07-24T00:04:33;13.82;;;6.18;;
54235;SDS011;40151;43.606;1.472;2023-07-24T00:07:01;9.82;;;6.03;;
54235;SDS011;40151;43.606;1.472;2023-07-24T00:09:27;11.13;;;5.88;;
54235;SDS011;40151;43.606;1.472;2023-07-24T00:11:53;11.30;;;5.60;;
54235;SDS011;40151;43.606;1.472;2023-07-24T00:14:18;9.38;;;5.57;;
54235;SDS011;40151;43.606;1.472;2023-07-24T00:16:43;10.25;;;6.07;;
54235;SDS011;40151;43.606;1.472;2023-07-24T00:19:09;14.43;;;6.38;;
54235;SDS011;40151;43.606;1.472;2023-07-24T00:21:34;10.52;;;6.57;;
54235;SDS011;40151;43.606;1.472;2023-07-24T00:24:00;8.73;;;6.10;;
54235;SDS011;40151;43.606;1.472;2023-07-24T00:26:25;10.40;;;6.20;;
54235;SDS011;40151;43.606;1.472;2023-07-24T00:28:50;11.43;;;6.30;;
54235;SDS011;40151;43.606;1.472;2023-07-24T00:31:16;11.77;;;6.03;;
54235;SDS011;40151;43.606;1.472;2023-07-24T00:33:41;11.55;;;5.43;;
54235;SDS011;40151;43.606;1.472;2023-07-24T00:36:06;11.57;;;6.15;;
54235;SDS011;40151;43.606;1.472;2023-07-24T00:38:32;9.73;;;5.65;;
54235;SDS011;40151;43.606;1.472;2023-07-24T00:40:57;9.65;;;5.60;;
54235;SDS011;40151;43.606;1.472;2023-07-24T00:43:23;9.00;;;5.55;;
54235;SDS011;40151;43.606;1.472;2023-07-24T00:45:48;10.27;;;6.00;;
54235;SDS011;40151;43.606;1.472;2023-07-24T00:48:14;10.25;;;5.68;;
54235;SDS011;40151;43.606;1.472;2023-07-24T00:50:40;9.10;;;5.88;;
54235;SDS011;40151;43.606;1.472;2023-07-24T00:53:07;9.43;;;5.57;;
54235;SDS011;40151;43.606;1.472;2023-07-24T00:55:33;9.57;;;5.80;;
54235;SDS011;40151;43.606;1.472;2023-07-24T00:57:58;10.20;;;6.20;;
54235;SDS011;40151;43.606;1.472;2023-07-24T01:00:25;9.88;;;5.45;;
54235;SDS011;40151;43.606;1.472;2023-07-24T01:02:51;11.60;;;6.30;;
54235;SDS011;40151;43.606;1.472;2023-07-24T01:05:17;9.88;;;5.45;;
54235;SDS011;40151;43.606;1.472;2023-07-24T01:07:42;9.15;;;5.95;;
54235;SDS011;40151;43.606;1.472;2023-07-24T01:10:08;11.68;;;5.82;;
54235;SDS011;40151;43.606;1.472;2023-07-24T01:12:45;13.20;;;6.47;;
54235;SDS011;40151;43.606;1.472;2023-07-24T01:15:19;9.02;;;6.00;;
54235;SDS011;40151;43.606;1.472;2023-07-24T01:18:08;11.02;;;5.60;;
54235;SDS011;40151;43.606;1.472;2023-07-24T01:20:40;9.02;;;5.80;;
54235;SDS011;40151;43.606;1.472;2023-07-24T01:23:13;10.57;;;6.47;;
54235;SDS011;40151;43.606;1.472;2023-07-24T01:28:22;10.52;;;5.80;;
54235;SDS011;40151;43.606;1.472;2023-07-24T01:30:47;10.40;;;6.28;;
54235;SDS011;40151;43.606;1.472;2023-07-24T01:33:12;9.40;;;5.65;;
54235;SDS011;40151;43.606;1.472;2023-07-24T01:35:39;9.60;;;5.70;;
54235;SDS011;40151;43.606;1.472;2023-07-24T01:38:11;10.02;;;6.28;;
54235;SDS011;40151;43.606;1.472;2023-07-24T01:40:41;11.30;;;6.40;;
54235;SDS011;40151;43.606;1.472;2023-07-24T01:43:08;9.90;;;6.28;;
54235;SDS011;40151;43.606;1.472;2023-07-24T01:45:33;10.00;;;5.88;;
54235;SDS011;40151;43.606;1.472;2023-07-24T01:48:00;9.27;;;6.05;;
54235;SDS011;40151;43.606;1.472;2023-07-24T01:50:27;8.68;;;6.13;;
54235;SDS011;40151;43.606;1.472;2023-07-24T01:52:52;9.00;;;5.60;;
54235;SDS011;40151;43.606;1.472;2023-07-24T01:55:17;8.55;;;5.05;;
54235;SDS011;40151;43.606;1.472;2023-07-24T01:57:43;7.07;;;5.13;;
54235;SDS011;40151;43.606;1.472;2023-07-24T02:00:08;9.40;;;5.65;;
54235;SDS011;40151;43.606;1.472;2023-07-24T02:02:34;7.03;;;4.85;;
54235;SDS011;40151;43.606;1.472;2023-07-24T02:05:00;7.72;;;5.60;;
54235;SDS011;40151;43.606;1.472;2023-07-24T02:07:25;8.32;;;5.40;;
54235;SDS011;40151;43.606;1.472;2023-07-24T02:09:50;8.63;;;5.35;;
54235;SDS011;40151;43.606;1.472;2023-07-24T02:12:16;9.27;;;5.22;;
54235;SDS011;40151;43.606;1.472;2023-07-24T02:14:41;8.50;;;5.80;;
54235;SDS011;40151;43.606;1.472;2023-07-24T02:17:07;6.78;;;5.32;;
54235;SDS011;40151;43.606;1.472;2023-07-24T02:19:32;8.40;;;5.70;;
54235;SDS011;40151;43.606;1.472;2023-07-24T02:21:57;8.38;;;5.97;;
54235;SDS011;40151;43.606;1.472;2023-07-24T02:24:23;8.13;;;5.40;;
54235;SDS011;40151;43.606;1.472;2023-07-24T02:26:48;9.50;;;5.97;;
54235;SDS011;40151;43.606;1.472;2023-07-24T02:29:14;7.20;;;5.80;;
54235;SDS011;40151;43.606;1.472;2023-07-24T02:31:39;7.82;;;5.68;;
54235;SDS011;40151;43.606;1.472;2023-07-24T02:34:05;7.57;;;6.00;;
54235;SDS011;40151;43.606;1.472;2023-07-24T02:36:30;7.95;;;6.35;;
54235;SDS011;40151;43.606;1.472;2023-07-24T02:38:56;8.45;;;5.95;;
54235;SDS011;40151;43.606;1.472;2023-07-24T02:41:21;8.00;;;5.65;;
54235;SDS011;40151;43.606;1.472;2023-07-24T02:43:46;7.88;;;6.38;;
54235;SDS011;40151;43.606;1.472;2023-07-24T02:46:12;8.13;;;6.65;;
54235;SDS011;40151;43.606;1.472;2023-07-24T02:48:37;7.55;;;5.55;;
54235;SDS011;40151;43.606;1.472;2023-07-24T02:51:02;8.57;;;6.43;;
54235;SDS011;40151;43.606;1.472;2023-07-24T02:53:28;8.60;;;6.28;;
54235;SDS011;40151;43.606;1.472;2023-07-24T02:55:54;7.75;;;6.38;;
54235;SDS011;40151;43.606;1.472;2023-07-24T02:58:19;7.45;;;6.25;;
54235;SDS011;40151;43.606;1.472;2023-07-24T03:00:44;8.20;;;6.05;;
54235;SDS011;40151;43.606;1.472;2023-07-24T03:03:10;6.95;;;5.32;;
54235;SDS011;40151;43.606;1.472;2023-07-24T03:05:35;8.00;;;6.18;;
54235;SDS011;40151;43.606;1.472;2023-07-24T03:08:01;7.20;;;5.85;;
54235;SDS011;40151;43.606;1.472;2023-07-24T03:10:26;6.85;;;5.60;;
54235;SDS011;40151;43.606;1.472;2023-07-24T03:12:52;8.23;;;5.65;;
54235;SDS011;40151;43.606;1.472;2023-07-24T03:15:18;7.60;;;5.60;;
54235;SDS011;40151;43.606;1.472;2023-07-24T03:17:44;8.50;;;6.32;;
54235;SDS011;40151;43.606;1.472;2023-07-24T03:20:16;6.63;;;5.85;;
54235;SDS011;40151;43.606;1.472;2023-07-24T03:22:44;6.60;;;5.20;;
54235;SDS011;40151;43.606;1.472;2023-07-24T03:25:10;8.32;;;5.35;;
54235;SDS011;40151;43.606;1.472;2023-07-24T03:27:36;7.15;;;5.13;;
54235;SDS011;40151;43.606;1.472;2023-07-24T03:30:01;7.82;;;5.35;;
54235;SDS011;40151;43.606;1.472;2023-07-24T03:32:28;7.15;;;5.13;;
54235;SDS011;40151;43.606;1.472;2023-07-24T03:34:54;7.00;;;5.03;;
54235;SDS011;40151;43.606;1.472;2023-07-24T03:37:19;7.55;;;5.30;;
54235;SDS011;40151;43.606;1.472;2023-07-24T03:39:44;7.72;;;5.22;;
54235;SDS011;40151;43.606;1.472;2023-07-24T03:42:10;10.13;;;5.38;;
54235;SDS011;40151;43.606;1.472;2023-07-24T03:44:39;7.53;;;4.90;;
54235;SDS011;40151;43.606;1.472;2023-07-24T03:47:05;6.68;;;5.18;;
54235;SDS011;40151;43.606;1.472;2023-07-24T03:49:31;7.75;;;5.05;;
54235;SDS011;40151;43.606;1.472;2023-07-24T03:51:56;9.60;;;5.32;;
54235;SDS011;40151;43.606;1.472;2023-07-24T03:54:22;6.88;;;5.18;;
54235;SDS011;40151;43.606;1.472;2023-07-24T03:56:47;6.72;;;4.78;;
54235;SDS011;40151;43.606;1.472;2023-07-24T03:59:12;7.40;;;4.60;;
54235;SDS011;40151;43.606;1.472;2023-07-24T04:01:38;6.88;;;4.82;;
54235;SDS011;40151;43.606;1.472;2023-07-24T04:04:03;6.85;;;4.97;;
54235;SDS011;40151;43.606;1.472;2023-07-24T04:06:29;6.18;;;4.70;;
54235;SDS011;40151;43.606;1.472;2023-07-24T04:08:54;6.30;;;4.68;;
54235;SDS011;40151;43.606;1.472;2023-07-24T04:11:19;5.85;;;4.70;;
54235;SDS011;40151;43.606;1.472;2023-07-24T04:13:45;7.82;;;4.75;;
54235;SDS011;40151;43.606;1.472;2023-07-24T04:16:10;6.05;;;4.53;;
54235;SDS011;40151;43.606;1.472;2023-07-24T04:18:36;7.85;;;4.65;;
54235;SDS011;40151;43.606;1.472;2023-07-24T04:21:01;5.82;;;4.30;;
54235;SDS011;40151;43.606;1.472;2023-07-24T04:23:26;5.93;;;4.00;;
54235;SDS011;40151;43.606;1.472;2023-07-24T04:25:52;7.32;;;4.75;;
54235;SDS011;40151;43.606;1.472;2023-07-24T04:28:17;7.40;;;4.70;;
54235;SDS011;40151;43.606;1.472;2023-07-24T04:30:42;6.82;;;4.43;;
54235;SDS011;40151;43.606;1.472;2023-07-24T04:33:08;7.50;;;4.70;;
54235;SDS011;40151;43.606;1.472;2023-07-24T04:35:33;6.97;;;4.30;;
54235;SDS011;40151;43.606;1.472;2023-07-24T04:37:59;5.57;;;4.03;;
54235;SDS011;40151;43.606;1.472;2023-07-24T04:40:24;6.30;;;4.18;;
54235;SDS011;40151;43.606;1.472;2023-07-24T04:42:49;7.05;;;5.00;;
54235;SDS011;40151;43.606;1.472;2023-07-24T04:45:15;6.43;;;4.30;;
54235;SDS011;40151;43.606;1.472;2023-07-24T04:47:40;6.97;;;4.72;;
54235;SDS011;40151;43.606;1.472;2023-07-24T04:50:07;6.85;;;4.50;;
54235;SDS011;40151;43.606;1.472;2023-07-24T04:52:32;7.05;;;4.97;;
54235;SDS011;40151;43.606;1.472;2023-07-24T04:54:58;7.22;;;4.50;;
54235;SDS011;40151;43.606;1.472;2023-07-24T04:57:23;7.15;;;4.50;;
54235;SDS011;40151;43.606;1.472;2023-07-24T04:59:50;6.15;;;4.55;;
54235;SDS011;40151;43.606;1.472;2023-07-24T05:02:15;7.95;;;4.97;;
54235;SDS011;40151;43.606;1.472;2023-07-24T05:04:40;5.97;;;4.45;;
54235;SDS011;40151;43.606;1.472;2023-07-24T05:07:06;5.78;;;4.47;;
54235;SDS011;40151;43.606;1.472;2023-07-24T05:09:32;6.20;;;4.95;;
54235;SDS011;40151;43.606;1.472;2023-07-24T05:11:57;7.28;;;5.00;;
54235;SDS011;40151;43.606;1.472;2023-07-24T05:14:22;7.85;;;4.88;;
54235;SDS011;40151;43.606;1.472;2023-07-24T05:16:48;7.28;;;4.90;;
54235;SDS011;40151;43.606;1.472;2023-07-24T05:19:13;7.18;;;4.57;;
54235;SDS011;40151;43.606;1.472;2023-07-24T05:21:39;7.28;;;4.65;;
54235;SDS011;40151;43.606;1.472;2023-07-24T05:24:04;6.47;;;4.38;;
54235;SDS011;40151;43.606;1.472;2023-07-24T05:26:30;6.82;;;4.60;;
54235;SDS011;40151;43.606;1.472;2023-07-24T05:28:55;6.63;;;4.78;;
54235;SDS011;40151;43.606;1.472;2023-07-24T05:31:21;6.32;;;4.22;;
54235;SDS011;40151;43.606;1.472;2023-07-24T05:33:46;6.93;;;4.45;;
54235;SDS011;40151;43.606;1.472;2023-07-24T05:36:11;6.95;;;5.03;;
54235;SDS011;40151;43.606;1.472;2023-07-24T05:38:37;7.20;;;4.82;;
54235;SDS011;40151;43.606;1.472;2023-07-24T05:41:03;6.28;;;4.57;;
54235;SDS011;40151;43.606;1.472;2023-07-24T05:43:29;6.72;;;4.65;;
54235;SDS011;40151;43.606;1.472;2023-07-24T05:45:56;7.10;;;4.63;;
54235;SDS011;40151;43.606;1.472;2023-07-24T05:48:22;6.70;;;4.68;;
54235;SDS011;40151;43.606;1.472;2023-07-24T05:50:48;6.90;;;4.53;;
54235;SDS011;40151;43.606;1.472;2023-07-24T05:53:14;7.82;;;5.22;;
54235;SDS011;40151;43.606;1.472;2023-07-24T05:55:40;6.88;;;4.57;;
54235;SDS011;40151;43.606;1.472;2023-07-24T05:58:07;6.57;;;4.47;;
54235;SDS011;40151;43.606;1.472;2023-07-24T06:00:32;6.38;;;4.47;;
54235;SDS011;40151;43.606;1.472;2023-07-24T06:02:58;7.68;;;4.55;;
54235;SDS011;40151;43.606;1.472;2023-07-24T06:05:23;7.32;;;4.53;;
54235;SDS011;40151;43.606;1.472;2023-07-24T06:07:49;6.70;;;4.13;;
54235;SDS011;40151;43.606;1.472;2023-07-24T06:10:14;7.30;;;4.05;;
54235;SDS011;40151;43.606;1.472;2023-07-24T06:12:40;5.50;;;4.10;;
54235;SDS011;40151;43.606;1.472;2023-07-24T06:15:06;6.47;;;4.68;;
54235;SDS011;40151;43.606;1.472;2023-07-24T06:17:31;6.65;;;4.53;;
54235;SDS011;40151;43.606;1.472;2023-07-24T06:19:57;6.43;;;4.18;;
54235;SDS011;40151;43.606;1.472;2023-07-24T06:22:23;6.80;;;4.32;;
54235;SDS011;40151;43.606;1.472;2023-07-24T06:24:48;6.43;;;4.10;;
54235;SDS011;40151;43.606;1.472;2023-07-24T06:27:14;6.30;;;4.28;;
54235;SDS011;40151;43.606;1.472;2023-07-24T06:29:40;5.90;;;4.35;;
54235;SDS011;40151;43.606;1.472;2023-07-24T06:32:05;7.10;;;4.60;;
54235;SDS011;40151;43.606;1.472;2023-07-24T06:34:31;5.53;;;4.30;;
54235;SDS011;40151;43.606;1.472;2023-07-24T06:36:57;6.50;;;4.50;;
54235;SDS011;40151;43.606;1.472;2023-07-24T06:39:22;6.53;;;4.53;;
54235;SDS011;40151;43.606;1.472;2023-07-24T06:41:47;6.30;;;4.45;;
54235;SDS011;40151;43.606;1.472;2023-07-24T06:44:13;7.65;;;4.30;;
54235;SDS011;40151;43.606;1.472;2023-07-24T06:46:38;6.68;;;4.38;;
54235;SDS011;40151;43.606;1.472;2023-07-24T06:49:04;7.80;;;4.72;;
54235;SDS011;40151;43.606;1.472;2023-07-24T06:51:29;7.60;;;4.65;;
54235;SDS011;40151;43.606;1.472;2023-07-24T06:53:54;6.25;;;4.40;;
54235;SDS011;40151;43.606;1.472;2023-07-24T06:56:20;7.88;;;4.40;;
54235;SDS011;40151;43.606;1.472;2023-07-24T06:58:45;7.55;;;4.85;;
54235;SDS011;40151;43.606;1.472;2023-07-24T07:01:10;7.22;;;4.55;;
54235;SDS011;40151;43.606;1.472;2023-07-24T07:03:36;10.02;;;5.72;;
54235;SDS011;40151;43.606;1.472;2023-07-24T07:06:02;8.65;;;5.43;;
54235;SDS011;40151;43.606;1.472;2023-07-24T07:08:28;7.88;;;5.25;;
54235;SDS011;40151;43.606;1.472;2023-07-24T07:10:56;7.45;;;4.70;;
54235;SDS011;40151;43.606;1.472;2023-07-24T07:13:23;7.75;;;4.63;;
54235;SDS011;40151;43.606;1.472;2023-07-24T07:15:48;5.90;;;4.15;;
54235;SDS011;40151;43.606;1.472;2023-07-24T07:18:13;7.38;;;4.60;;
54235;SDS011;40151;43.606;1.472;2023-07-24T07:20:44;8.13;;;5.13;;
54235;SDS011;40151;43.606;1.472;2023-07-24T07:23:10;12.00;;;6.07;;
54235;SDS011;40151;43.606;1.472;2023-07-24T07:25:36;7.80;;;4.93;;
54235;SDS011;40151;43.606;1.472;2023-07-24T07:28:01;5.93;;;3.90;;
54235;SDS011;40151;43.606;1.472;2023-07-24T07:30:26;6.93;;;4.50;;
54235;SDS011;40151;43.606;1.472;2023-07-24T07:32:52;6.72;;;4.40;;
54235;SDS011;40151;43.606;1.472;2023-07-24T07:35:17;6.07;;;4.20;;
54235;SDS011;40151;43.606;1.472;2023-07-24T07:37:43;6.88;;;4.05;;
54235;SDS011;40151;43.606;1.472;2023-07-24T07:40:08;7.35;;;4.53;;
54235;SDS011;40151;43.606;1.472;2023-07-24T07:42:34;9.35;;;4.38;;
54235;SDS011;40151;43.606;1.472;2023-07-24T07:44:59;9.30;;;4.35;;
54235;SDS011;40151;43.606;1.472;2023-07-24T07:47:25;9.02;;;4.18;;
54235;SDS011;40151;43.606;1.472;2023-07-24T07:49:50;6.80;;;4.30;;
54235;SDS011;40151;43.606;1.472;2023-07-24T07:52:16;6.38;;;4.10;;
54235;SDS011;40151;43.606;1.472;2023-07-24T07:54:45;8.63;;;3.90;;
54235;SDS011;40151;43.606;1.472;2023-07-24T07:57:12;8.57;;;4.03;;
54235;SDS011;40151;43.606;1.472;2023-07-24T07:59:37;5.75;;;3.97;;
54235;SDS011;40151;43.606;1.472;2023-07-24T08:02:03;7.28;;;4.30;;
54235;SDS011;40151;43.606;1.472;2023-07-24T08:04:28;7.80;;;4.50;;
54235;SDS011;40151;43.606;1.472;2023-07-24T08:06:54;8.05;;;4.00;;
54235;SDS011;40151;43.606;1.472;2023-07-24T08:09:19;8.25;;;4.05;;
54235;SDS011;40151;43.606;1.472;2023-07-24T08:11:46;6.30;;;4.38;;
54235;SDS011;40151;43.606;1.472;2023-07-24T08:14:12;8.27;;;3.85;;
54235;SDS011;40151;43.606;1.472;2023-07-24T08:16:37;7.03;;;4.65;;
54235;SDS011;40151;43.606;1.472;2023-07-24T08:19:03;6.25;;;4.25;;
54235;SDS011;40151;43.606;1.472;2023-07-24T08:21:28;6.50;;;4.07;;
54235;SDS011;40151;43.606;1.472;2023-07-24T08:23:54;6.47;;;4.65;;
54235;SDS011;40151;43.606;1.472;2023-07-24T08:26:19;5.18;;;3.55;;
54235;SDS011;40151;43.606;1.472;2023-07-24T08:28:44;7.40;;;4.03;;
54235;SDS011;40151;43.606;1.472;2023-07-24T08:31:10;5.85;;;3.78;;
54235;SDS011;40151;43.606;1.472;2023-07-24T08:33:35;8.27;;;4.35;;
54235;SDS011;40151;43.606;1.472;2023-07-24T08:36:02;5.40;;;4.05;;
54235;SDS011;40151;43.606;1.472;2023-07-24T08:38:29;5.75;;;4.20;;
54235;SDS011;40151;43.606;1.472;2023-07-24T08:41:01;6.45;;;4.25;;
54235;SDS011;40151;43.606;1.472;2023-07-24T08:43:27;5.85;;;3.78;;
54235;SDS011;40151;43.606;1.472;2023-07-24T08:45:54;6.43;;;4.47;;
54235;SDS011;40151;43.606;1.472;2023-07-24T08:48:20;6.22;;;3.85;;
54235;SDS011;40151;43.606;1.472;2023-07-24T08:50:47;6.10;;;3.70;;
54235;SDS011;40151;43.606;1.472;2023-07-24T08:53:16;5.50;;;3.67;;
54235;SDS011;40151;43.606;1.472;2023-07-24T08:55:44;5.20;;;3.85;;
54235;SDS011;40151;43.606;1.472;2023-07-24T08:58:12;6.13;;;3.90;;
54235;SDS011;40151;43.606;1.472;2023-07-24T09:00:38;6.68;;;4.47;;
54235;SDS011;40151;43.606;1.472;2023-07-24T09:03:03;5.82;;;4.13;;
54235;SDS011;40151;43.606;1.472;2023-07-24T09:05:29;5.80;;;4.13;;
54235;SDS011;40151;43.606;1.472;2023-07-24T09:07:54;6.57;;;3.75;;
54235;SDS011;40151;43.606;1.472;2023-07-24T09:10:26;4.68;;;3.42;;
54235;SDS011;40151;43.606;1.472;2023-07-24T09:12:51;5.40;;;4.20;;
54235;SDS011;40151;43.606;1.472;2023-07-24T09:15:17;5.55;;;3.75;;
54235;SDS011;40151;43.606;1.472;2023-07-24T09:17:52;7.03;;;4.20;;
54235;SDS011;40151;43.606;1.472;2023-07-24T09:20:19;6.93;;;4.00;;
54235;SDS011;40151;43.606;1.472;2023-07-24T09:22:51;6.13;;;3.20;;
54235;SDS011;40151;43.606;1.472;2023-07-24T09:25:18;6.57;;;3.80;;
54235;SDS011;40151;43.606;1.472;2023-07-24T09:27:54;4.78;;;3.65;;
54235;SDS011;40151;43.606;1.472;2023-07-24T09:30:19;5.88;;;3.67;;
54235;SDS011;40151;43.606;1.472;2023-07-24T09:32:51;5.70;;;3.45;;
54235;SDS011;40151;43.606;1.472;2023-07-24T09:35:20;5.88;;;3.70;;
54235;SDS011;40151;43.606;1.472;2023-07-24T09:38:01;5.80;;;3.45;;
54235;SDS011;40151;43.606;1.472;2023-07-24T09:40:40;5.38;;;3.63;;
54235;SDS011;40151;43.606;1.472;2023-07-24T09:43:17;5.18;;;3.33;;
54235;SDS011;40151;43.606;1.472;2023-07-24T09:45:47;5.50;;;3.38;;
54235;SDS011;40151;43.606;1.472;2023-07-24T09:48:14;4.85;;;3.05;;
54235;SDS011;40151;43.606;1.472;2023-07-24T09:50:41;5.18;;;3.47;;
54235;SDS011;40151;43.606;1.472;2023-07-24T09:53:12;5.07;;;3.20;;
54235;SDS011;40151;43.606;1.472;2023-07-24T09:55:43;5.40;;;3.53;;
54235;SDS011;40151;43.606;1.472;2023-07-24T09:58:16;5.30;;;3.13;;
54235;SDS011;40151;43.606;1.472;2023-07-24T10:00:43;4.60;;;3.05;;
54235;SDS011;40151;43.606;1.472;2023-07-24T10:03:10;4.63;;;3.28;;
54235;SDS011;40151;43.606;1.472;2023-07-24T10:05:36;6.15;;;3.85;;
54235;SDS011;40151;43.606;1.472;2023-07-24T10:08:03;6.30;;;3.70;;
54235;SDS011;40151;43.606;1.472;2023-07-24T10:10:30;6.03;;;3.38;;
54235;SDS011;40151;43.606;1.472;2023-07-24T10:12:58;4.80;;;3.10;;
54235;SDS011;40151;43.606;1.472;2023-07-24T10:15:24;5.93;;;3.60;;
54235;SDS011;40151;43.606;1.472;2023-07-24T10:18:00;6.47;;;3.25;;
54235;SDS011;40151;43.606;1.472;2023-07-24T10:20:32;5.10;;;3.05;;
54235;SDS011;40151;43.606;1.472;2023-07-24T10:23:04;5.53;;;3.60;;
54235;SDS011;40151;43.606;1.472;2023-07-24T10:25:31;5.18;;;3.35;;
54235;SDS011;40151;43.606;1.472;2023-07-24T10:28:04;5.00;;;3.25;;
54235;SDS011;40151;43.606;1.472;2023-07-24T10:30:33;5.38;;;3.08;;
54235;SDS011;40151;43.606;1.472;2023-07-24T10:35:39;5.63;;;3.35;;
54235;SDS011;40151;43.606;1.472;2023-07-24T10:38:09;5.50;;;3.65;;
54235;SDS011;40151;43.606;1.472;2023-07-24T10:40:35;5.25;;;3.50;;
54235;SDS011;40151;43.606;1.472;2023-07-24T10:43:04;6.68;;;3.38;;
54235;SDS011;40151;43.606;1.472;2023-07-24T10:45:41;5.20;;;3.05;;
54235;SDS011;40151;43.606;1.472;2023-07-24T10:48:13;4.50;;;2.88;;
54235;SDS011;40151;43.606;1.472;2023-07-24T10:50:39;6.60;;;3.15;;
54235;SDS011;40151;43.606;1.472;2023-07-24T10:53:06;6.25;;;2.88;;
54235;SDS011;40151;43.606;1.472;2023-07-24T10:55:31;6.25;;;3.13;;
54235;SDS011;40151;43.606;1.472;2023-07-24T10:57:57;6.80;;;3.50;;
54235;SDS011;40151;43.606;1.472;2023-07-24T11:00:23;10.05;;;3.40;;
54235;SDS011;40151;43.606;1.472;2023-07-24T11:02:48;10.77;;;3.92;;
54235;SDS011;40151;43.606;1.472;2023-07-24T11:05:14;6.95;;;3.03;;
54235;SDS011;40151;43.606;1.472;2023-07-24T11:07:41;7.80;;;3.80;;
54235;SDS011;40151;43.606;1.472;2023-07-24T11:12:42;6.00;;;2.67;;
54235;SDS011;40151;43.606;1.472;2023-07-24T11:15:07;10.77;;;3.50;;
54235;SDS011;40151;43.606;1.472;2023-07-24T11:17:36;5.43;;;3.13;;
54235;SDS011;40151;43.606;1.472;2023-07-24T11:20:16;5.72;;;3.10;;
54235;SDS011;40151;43.606;1.472;2023-07-24T11:22:42;7.60;;;2.90;;
54235;SDS011;40151;43.606;1.472;2023-07-24T11:25:09;6.90;;;3.40;;
54235;SDS011;40151;43.606;1.472;2023-07-24T11:27:42;6.78;;;3.17;;
54235;SDS011;40151;43.606;1.472;2023-07-24T11:30:12;6.32;;;3.17;;
54235;SDS011;40151;43.606;1.472;2023-07-24T11:32:38;7.05;;;3.15;;
54235;SDS011;40151;43.606;1.472;2023-07-24T11:35:05;6.65;;;2.97;;
54235;SDS011;40151;43.606;1.472;2023-07-24T11:37:33;8.90;;;4.20;;
54235;SDS011;40151;43.606;1.472;2023-07-24T11:40:00;5.32;;;3.33;;
54235;SDS011;40151;43.606;1.472;2023-07-24T11:42:47;5.70;;;3.30;;
54235;SDS011;40151;43.606;1.472;2023-07-24T11:45:13;6.40;;;3.17;;
54235;SDS011;40151;43.606;1.472;2023-07-24T11:47:46;6.50;;;3.20;;
54235;SDS011;40151;43.606;1.472;2023-07-24T11:50:13;5.30;;;3.35;;
54235;SDS011;40151;43.606;1.472;2023-07-24T11:52:46;7.28;;;3.97;;
54235;SDS011;40151;43.606;1.472;2023-07-24T11:55:14;5.55;;;3.08;;
54235;SDS011;40151;43.606;1.472;2023-07-24T11:57:57;4.93;;;3.08;;
54235;SDS011;40151;43.606;1.472;2023-07-24T12:00:26;6.28;;;3.10;;
54235;SDS011;40151;43.606;1.472;2023-07-24T12:02:53;5.05;;;2.65;;
54235;SDS011;40151;43.606;1.472;2023-07-24T12:05:23;5.07;;;3.03;;
54235;SDS011;40151;43.606;1.472;2023-07-24T12:07:49;5.57;;;3.03;;
54235;SDS011;40151;43.606;1.472;2023-07-24T12:10:24;5.32;;;3.05;;
54235;SDS011;40151;43.606;1.472;2023-07-24T12:12:52;6.70;;;3.13;;
54235;SDS011;40151;43.606;1.472;2023-07-24T12:15:18;6.57;;;3.40;;
54235;SDS011;40151;43.606;1.472;2023-07-24T12:17:43;5.00;;;3.05;;
54235;SDS011;40151;43.606;1.472;2023-07-24T12:20:09;5.50;;;3.00;;
54235;SDS011;40151;43.606;1.472;2023-07-24T12:22:35;8.40;;;3.22;;
54235;SDS011;40151;43.606;1.472;2023-07-24T12:25:02;6.75;;;3.45;;
54235;SDS011;40151;43.606;1.472;2023-07-24T12:27:28;6.13;;;2.88;;
54235;SDS011;40151;43.606;1.472;2023-07-24T12:29:53;7.57;;;3.20;;
54235;SDS011;40151;43.606;1.472;2023-07-24T12:32:19;7.20;;;3.70;;
54235;SDS011;40151;43.606;1.472;2023-07-24T12:34:46;5.88;;;3.10;;
54235;SDS011;40151;43.606;1.472;2023-07-24T12:37:12;6.88;;;2.63;;
54235;SDS011;40151;43.606;1.472;2023-07-24T12:39:38;4.57;;;3.08;;
54235;SDS011;40151;43.606;1.472;2023-07-24T12:42:04;5.45;;;2.55;;
54235;SDS011;40151;43.606;1.472;2023-07-24T12:44:30;5.90;;;2.92;;
54235;SDS011;40151;43.606;1.472;2023-07-24T12:46:55;5.93;;;2.90;;
54235;SDS011;40151;43.606;1.472;2023-07-24T12:49:21;6.10;;;2.88;;
54235;SDS011;40151;43.606;1.472;2023-07-24T12:51:46;6.20;;;3.15;;
54235;SDS011;40151;43.606;1.472;2023-07-24T12:54:12;6.32;;;3.08;;
54235;SDS011;40151;43.606;1.472;2023-07-24T12:56:37;6.68;;;3.33;;
54235;SDS011;40151;43.606;1.472;2023-07-24T12:59:03;5.63;;;3.13;;
54235;SDS011;40151;43.606;1.472;2023-07-24T13:01:28;5.18;;;2.72;;
54235;SDS011;40151;43.606;1.472;2023-07-24T13:03:54;5.88;;;2.80;;
54235;SDS011;40151;43.606;1.472;2023-07-24T13:06:20;5.13;;;3.10;;
54235;SDS011;40151;43.606;1.472;2023-07-24T13:08:45;4.82;;;2.53;;
54235;SDS011;40151;43.606;1.472;2023-07-24T13:11:11;5.45;;;2.72;;
54235;SDS011;40151;43.606;1.472;2023-07-24T13:13:36;4.45;;;2.97;;
54235;SDS011;40151;43.606;1.472;2023-07-24T13:16:02;4.68;;;2.75;;
54235;SDS011;40151;43.606;1.472;2023-07-24T13:18:28;3.92;;;2.55;;
54235;SDS011;40151;43.606;1.472;2023-07-24T13:20:54;4.88;;;2.53;;
54235;SDS011;40151;43.606;1.472;2023-07-24T13:23:19;5.10;;;2.72;;
54235;SDS011;40151;43.606;1.472;2023-07-24T13:25:45;4.70;;;2.70;;
54235;SDS011;40151;43.606;1.472;2023-07-24T13:28:10;4.38;;;2.30;;
54235;SDS011;40151;43.606;1.472;2023-07-24T13:30:36;4.28;;;2.35;;
54235;SDS011;40151;43.606;1.472;2023-07-24T13:33:01;5.32;;;3.00;;
54235;SDS011;40151;43.606;1.472;2023-07-24T13:35:26;4.53;;;2.88;;
54235;SDS011;40151;43.606;1.472;2023-07-24T13:37:52;5.22;;;3.08;;
54235;SDS011;40151;43.606;1.472;2023-07-24T13:40:17;4.88;;;2.92;;
54235;SDS011;40151;43.606;1.472;2023-07-24T13:42:43;4.05;;;2.47;;
54235;SDS011;40151;43.606;1.472;2023-07-24T13:45:08;4.53;;;2.80;;
54235;SDS011;40151;43.606;1.472;2023-07-24T13:47:34;4.88;;;3.08;;
54235;SDS011;40151;43.606;1.472;2023-07-24T13:49:59;5.57;;;3.20;;
54235;SDS011;40151;43.606;1.472;2023-07-24T13:52:28;5.32;;;3.20;;
54235;SDS011;40151;43.606;1.472;2023-07-24T13:54:53;4.80;;;3.20;;
54235;SDS011;40151;43.606;1.472;2023-07-24T13:57:19;4.55;;;2.72;;
54235;SDS011;40151;43.606;1.472;2023-07-24T13:59:44;4.05;;;2.40;;
54235;SDS011;40151;43.606;1.472;2023-07-24T14:02:10;8.30;;;3.08;;
54235;SDS011;40151;43.606;1.472;2023-07-24T14:04:37;4.25;;;2.42;;
54235;SDS011;40151;43.606;1.472;2023-07-24T14:07:03;5.10;;;2.72;;
54235;SDS011;40151;43.606;1.472;2023-07-24T14:09:28;6.18;;;2.80;;
54235;SDS011;40151;43.606;1.472;2023-07-24T14:11:55;6.30;;;2.40;;
54235;SDS011;40151;43.606;1.472;2023-07-24T14:14:21;5.05;;;2.38;;
54235;SDS011;40151;43.606;1.472;2023-07-24T14:16:48;5.40;;;2.40;;
54235;SDS011;40151;43.606;1.472;2023-07-24T14:19:14;5.40;;;2.17;;
54235;SDS011;40151;43.606;1.472;2023-07-24T14:21:40;4.60;;;2.13;;
54235;SDS011;40151;43.606;1.472;2023-07-24T14:24:05;4.20;;;2.00;;
54235;SDS011;40151;43.606;1.472;2023-07-24T14:26:31;5.28;;;1.90;;
54235;SDS011;40151;43.606;1.472;2023-07-24T14:28:56;3.30;;;1.63;;
54235;SDS011;40151;43.606;1.472;2023-07-24T14:31:22;40.60;;;4.05;;
54235;SDS011;40151;43.606;1.472;2023-07-24T14:33:48;12.20;;;2.60;;
54235;SDS011;40151;43.606;1.472;2023-07-24T14:36:14;13.90;;;2.58;;
54235;SDS011;40151;43.606;1.472;2023-07-24T14:38:39;24.55;;;3.63;;
54235;SDS011;40151;43.606;1.472;2023-07-24T14:41:04;21.02;;;2.90;;
54235;SDS011;40151;43.606;1.472;2023-07-24T14:43:30;25.92;;;3.85;;
54235;SDS011;40151;43.606;1.472;2023-07-24T14:45:55;11.05;;;2.92;;
54235;SDS011;40151;43.606;1.472;2023-07-24T14:48:21;9.13;;;2.22;;
54235;SDS011;40151;43.606;1.472;2023-07-24T14:50:46;6.80;;;2.05;;